Time;durP1;ratioP1;P1;durP2;ratioP2;P2;SDS_P1;SDS_P2;PMS_P1;PMS_P2;Temp;Humidity;BMP_temperature;BMP_pressure;BME280_temperature;BME280_humidity;BME280_pressure;Samples;Min_cycle;Max_cycle;Signal;HPM_P1;HPM_P2
2024/01/09 00:00:54;;;;;;;4.05;3.45;;;-1.70;99.90;;;;;;5129377;27;20043;-70
2024/01/09 00:03:20;;;;;;;5.63;3.97;;;-1.70;99.90;;;;;;5128477;27;20051;-70
2024/01/09 00:05:45;;;;;;;5.88;3.95;;;-1.70;99.90;;;;;;5110568;27;20126;-70
2024/01/09 00:08:11;;;;;;;4.80;3.65;;;-1.70;99.90;;;;;;5129623;27;20042;-70
2024/01/09 00:10:37;;;;;;;5.45;3.40;;;-1.70;99.90;;;;;;5110432;27;20058;-69
2024/01/09 00:13:03;;;;;;;5.88;3.42;;;-1.70;99.90;;;;;;5110999;27;20043;-69
2024/01/09 00:15:30;;;;;;;6.43;3.95;;;-1.70;99.90;;;;;;5110610;27;20147;-70
2024/01/09 00:17:57;;;;;;;4.95;3.53;;;-1.70;99.90;;;;;;5110808;27;20447;-70
2024/01/09 00:20:22;;;;;;;6.38;3.65;;;-1.70;99.90;;;;;;5110480;28;20043;-70
2024/01/09 00:22:48;;;;;;;7.10;3.92;;;-1.80;99.90;;;;;;5110125;27;20068;-70
2024/01/09 00:25:16;;;;;;;4.80;3.33;;;-1.80;99.90;;;;;;5110089;28;20088;-70
2024/01/09 00:27:43;;;;;;;5.38;3.65;;;-1.80;99.90;;;;;;5128588;28;20118;-69
2024/01/09 00:30:09;;;;;;;6.47;4.25;;;-1.80;99.90;;;;;;5110765;28;20042;-70
2024/01/09 00:32:34;;;;;;;5.80;3.50;;;-1.80;99.90;;;;;;5110675;28;20366;-70
2024/01/09 00:35:01;;;;;;;5.75;3.70;;;-1.90;99.90;;;;;;5128894;28;20047;-70
2024/01/09 00:37:26;;;;;;;5.30;3.70;;;-1.90;99.90;;;;;;5093201;28;20043;-70
2024/01/09 00:39:52;;;;;;;5.15;3.30;;;-1.90;99.90;;;;;;5128775;28;20049;-69
2024/01/09 00:42:18;;;;;;;5.93;3.75;;;-1.90;99.90;;;;;;5128866;28;20453;-70
2024/01/09 00:44:44;;;;;;;4.90;3.72;;;-1.90;99.90;;;;;;5129136;28;20093;-70
2024/01/09 00:47:10;;;;;;;5.22;3.70;;;-1.90;99.90;;;;;;5128474;28;20045;-70
2024/01/09 00:49:35;;;;;;;5.68;3.72;;;-1.90;99.90;;;;;;5110008;28;20051;-70
2024/01/09 00:52:02;;;;;;;3.65;3.33;;;-2.00;99.90;;;;;;5110050;28;20355;-70
2024/01/09 00:54:28;;;;;;;6.00;3.85;;;-2.00;99.90;;;;;;5128549;28;20121;-69
2024/01/09 00:56:54;;;;;;;5.13;3.42;;;-2.00;99.90;;;;;;5128778;28;20126;-70
2024/01/09 00:59:19;;;;;;;5.07;3.60;;;-2.00;99.90;;;;;;5129037;28;20047;-70
2024/01/09 01:01:51;;;;;;;4.78;3.63;;;-2.00;99.90;;;;;;5110053;28;20427;-70
2024/01/09 01:04:18;;;;;;;6.28;3.90;;;-2.00;99.90;;;;;;5128528;28;20219;-69
2024/01/09 01:06:45;;;;;;;4.63;3.40;;;-2.00;99.90;;;;;;5128586;28;20047;-70
2024/01/09 01:09:12;;;;;;;7.43;4.22;;;-2.00;99.90;;;;;;5109872;28;20043;-69
2024/01/09 01:11:38;;;;;;;4.90;3.38;;;-2.10;99.90;;;;;;5110173;28;20043;-69
2024/01/09 01:14:03;;;;;;;3.50;3.17;;;-2.00;99.90;;;;;;5128673;28;20047;-69
2024/01/09 01:16:30;;;;;;;5.60;3.35;;;-2.10;99.90;;;;;;5129072;28;20072;-69
2024/01/09 01:18:56;;;;;;;7.03;3.60;;;-2.00;99.90;;;;;;5110545;28;20058;-70
2024/01/09 01:21:22;;;;;;;5.65;3.67;;;-2.00;99.90;;;;;;5128386;28;20035;-70
2024/01/09 01:23:48;;;;;;;7.03;3.58;;;-2.10;99.90;;;;;;5128804;28;20078;-69
2024/01/09 01:26:14;;;;;;;5.45;3.28;;;-2.10;99.90;;;;;;5109731;28;20422;-70
2024/01/09 01:28:40;;;;;;;5.20;3.78;;;-2.10;99.90;;;;;;5109447;28;20134;-70
2024/01/09 01:31:06;;;;;;;4.47;3.40;;;-2.10;99.90;;;;;;5109922;28;20141;-70
2024/01/09 01:33:31;;;;;;;7.32;3.15;;;-2.10;99.90;;;;;;5128125;27;20486;-70
2024/01/09 01:35:57;;;;;;;4.10;3.63;;;-2.20;99.90;;;;;;5131859;27;20031;-70
2024/01/09 01:38:23;;;;;;;5.47;3.08;;;-2.20;99.90;;;;;;5131977;27;20115;-70
2024/01/09 01:40:48;;;;;;;5.00;3.58;;;-2.10;99.90;;;;;;5132184;27;20165;-69
2024/01/09 01:43:14;;;;;;;4.20;3.00;;;-2.10;99.90;;;;;;5131982;27;20390;-68
2024/01/09 01:45:40;;;;;;;4.47;3.55;;;-2.10;99.90;;;;;;5131922;27;20072;-69
2024/01/09 01:48:06;;;;;;;4.18;3.35;;;-2.20;99.90;;;;;;5131697;27;20096;-69
2024/01/09 01:50:33;;;;;;;6.15;2.92;;;-2.40;99.90;;;;;;5131800;27;20431;-70
2024/01/09 01:53:02;;;;;;;3.75;3.42;;;-2.30;99.90;;;;;;5112731;27;20042;-70
2024/01/09 01:55:29;;;;;;;5.28;3.22;;;-2.30;99.90;;;;;;5112913;27;20055;-70
2024/01/09 01:57:57;;;;;;;4.50;3.05;;;-2.20;99.90;;;;;;5113081;27;20050;-69
2024/01/09 02:00:25;;;;;;;6.90;3.45;;;-2.30;99.90;;;;;;5131494;27;20080;-68
2024/01/09 02:02:53;;;;;;;5.80;3.95;;;-2.30;99.90;;;;;;5113219;27;20390;-69
2024/01/09 02:05:22;;;;;;;4.85;3.72;;;-2.30;99.90;;;;;;5095744;27;20107;-68
2024/01/09 02:07:50;;;;;;;6.05;3.10;;;-2.30;99.90;;;;;;5112593;27;20055;-69
2024/01/09 02:10:22;;;;;;;4.05;3.00;;;-2.40;99.90;;;;;;5112737;27;20043;-69
2024/01/09 02:12:47;;;;;;;4.38;3.50;;;-2.30;99.90;;;;;;5127800;27;20149;-69
2024/01/09 02:15:13;;;;;;;4.97;3.35;;;-2.30;99.90;;;;;;5133396;27;20114;-69
2024/01/09 02:17:39;;;;;;;4.03;3.05;;;-2.40;99.90;;;;;;5132523;27;20049;-69
2024/01/09 02:20:07;;;;;;;4.15;2.92;;;-2.40;99.90;;;;;;5133140;27;20042;-69
2024/01/09 02:22:33;;;;;;;6.28;3.38;;;-2.40;99.90;;;;;;5151406;27;20043;-69
2024/01/09 02:24:58;;;;;;;5.72;3.67;;;-2.40;99.90;;;;;;5133218;27;20183;-69
2024/01/09 02:27:54;;;;;;;3.35;3.00;;;-2.50;99.90;;;;;;5132798;27;20133;-69
2024/01/09 02:30:20;;;;;;;7.18;3.40;;;-2.50;99.90;;;;;;5152004;27;20522;-68
2024/01/09 02:32:47;;;;;;;4.07;3.58;;;-2.50;99.90;;;;;;5132808;27;20038;-70
2024/01/09 02:35:13;;;;;;;4.82;3.20;;;-2.50;99.90;;;;;;5115894;27;20394;-69
2024/01/09 02:37:38;;;;;;;5.63;3.47;;;-2.50;99.90;;;;;;5133249;27;20034;-69
2024/01/09 02:40:07;;;;;;;3.55;2.95;;;-2.50;99.90;;;;;;5151522;27;20400;-69
2024/01/09 02:42:33;;;;;;;3.30;2.95;;;-2.50;99.90;;;;;;5152071;27;20046;-69
2024/01/09 02:44:58;;;;;;;4.50;3.47;;;-2.40;99.90;;;;;;5151259;27;20042;-70
2024/01/09 02:47:26;;;;;;;5.72;3.17;;;-2.50;99.90;;;;;;5151550;27;20082;-69
2024/01/09 02:49:52;;;;;;;5.10;3.22;;;-2.50;99.90;;;;;;5132359;27;20107;-70
2024/01/09 02:52:18;;;;;;;3.58;3.25;;;-2.60;99.90;;;;;;5151487;27;20047;-69
2024/01/09 02:54:44;;;;;;;4.30;2.90;;;-2.60;99.90;;;;;;5132541;27;20054;-70
2024/01/09 02:57:11;;;;;;;5.72;3.00;;;-2.50;99.90;;;;;;5132282;27;20183;-69
2024/01/09 02:59:38;;;;;;;5.20;3.35;;;-2.60;99.90;;;;;;5150976;27;20047;-69
2024/01/09 03:02:04;;;;;;;3.55;3.00;;;-2.60;99.90;;;;;;5132653;27;20570;-69
2024/01/09 03:04:30;;;;;;;4.78;3.30;;;-2.60;99.90;;;;;;5131940;27;20102;-69
2024/01/09 03:06:56;;;;;;;4.40;3.20;;;-2.60;99.90;;;;;;5132096;27;20172;-69
2024/01/09 03:09:22;;;;;;;4.57;3.25;;;-2.60;99.90;;;;;;5132256;27;20049;-69
2024/01/09 03:11:47;;;;;;;3.38;2.90;;;-2.70;99.90;;;;;;5131901;27;20050;-69
2024/01/09 03:14:15;;;;;;;6.30;3.38;;;-2.60;99.90;;;;;;5151385;27;20375;-68
2024/01/09 03:16:40;;;;;;;4.80;3.40;;;-2.60;99.90;;;;;;5151136;27;20053;-68
2024/01/09 03:19:06;;;;;;;5.20;3.13;;;-2.60;99.90;;;;;;5150630;27;20069;-68
2024/01/09 03:21:32;;;;;;;3.65;3.00;;;-2.80;99.90;;;;;;5131796;27;20092;-68
2024/01/09 03:23:58;;;;;;;3.75;3.08;;;-2.80;99.90;;;;;;5150795;27;20066;-69
2024/01/09 03:26:23;;;;;;;4.93;3.55;;;-2.90;99.90;;;;;;5150600;27;20043;-68
2024/01/09 03:28:49;;;;;;;4.45;3.38;;;-2.80;99.90;;;;;;5131596;27;20043;-68
2024/01/09 03:31:22;;;;;;;4.43;3.55;;;-2.70;99.90;;;;;;5131706;27;20122;-69
2024/01/09 03:33:48;;;;;;;;;;;-2.70;99.90;;;;;;5132506;27;20946;-69
2024/01/09 03:36:14;;;;;;;3.90;3.05;;;-2.70;99.90;;;;;;5131845;27;19940;-69
2024/01/09 03:38:44;;;;;;;6.50;3.20;;;-2.80;99.90;;;;;;5131581;27;20051;-69
2024/01/09 03:41:10;;;;;;;5.30;3.90;;;-2.90;99.90;;;;;;5131684;27;20042;-69
2024/01/09 03:43:36;;;;;;;3.55;3.10;;;-2.80;99.90;;;;;;5131707;27;20077;-69
2024/01/09 03:46:02;;;;;;;5.57;3.05;;;-2.90;99.90;;;;;;5131369;27;20042;-69
2024/01/09 03:48:28;;;;;;;5.72;3.47;;;-2.80;99.90;;;;;;5131150;27;20107;-69
2024/01/09 03:50:54;;;;;;;7.65;2.45;;;-2.90;99.90;;;;;;5131945;27;20129;-69
2024/01/09 03:53:20;;;;;;;8.35;3.90;;;-3.00;99.90;;;;;;5131479;27;20042;-69
2024/01/09 03:55:46;;;;;;;4.65;3.40;;;-2.90;99.90;;;;;;5113724;27;20095;-69
2024/01/09 03:58:12;;;;;;;4.93;2.95;;;-2.90;99.90;;;;;;5149263;27;20038;-69
2024/01/09 04:00:40;;;;;;;4.93;2.75;;;-3.00;99.90;;;;;;5150363;27;20065;-69
2024/01/09 04:03:06;;;;;;;6.10;3.97;;;-2.90;99.90;;;;;;5131166;27;20129;-69
2024/01/09 04:05:32;;;;;;;4.70;3.53;;;-2.90;99.90;;;;;;5149803;27;20121;-69
2024/01/09 04:07:58;;;;;;;3.50;3.15;;;-3.00;99.90;;;;;;5131230;27;20046;-69
2024/01/09 04:10:24;;;;;;;5.00;3.40;;;-3.00;99.90;;;;;;5131021;27;20099;-69
2024/01/09 04:12:50;;;;;;;5.88;3.47;;;-3.00;99.90;;;;;;5131136;27;20114;-69
2024/01/09 04:15:15;;;;;;;5.25;3.63;;;-3.00;99.90;;;;;;5131258;27;20046;-69
2024/01/09 04:17:41;;;;;;;4.57;3.22;;;-3.00;99.90;;;;;;5149533;27;20066;-69
2024/01/09 04:20:11;;;;;;;4.82;3.83;;;-3.00;99.90;;;;;;5149863;27;20074;-69
2024/01/09 04:22:36;;;;;;;5.80;3.13;;;-3.00;99.90;;;;;;5131010;27;20179;-69
2024/01/09 04:25:05;;;;;;;3.90;3.05;;;-3.00;99.90;;;;;;5149656;27;20125;-69
2024/01/09 04:27:31;;;;;;;4.95;3.28;;;-3.00;99.90;;;;;;5149700;27;20062;-70
2024/01/09 04:29:59;;;;;;;5.32;3.53;;;-3.00;99.90;;;;;;5149977;27;20039;-69
2024/01/09 04:32:24;;;;;;;3.50;3.20;;;-3.00;99.90;;;;;;5130699;27;20058;-69
2024/01/09 04:34:50;;;;;;;6.18;3.28;;;-3.00;99.90;;;;;;5149917;27;20058;-70
2024/01/09 04:37:16;;;;;;;5.43;3.28;;;-3.00;99.90;;;;;;5131060;27;20199;-70
2024/01/09 04:39:42;;;;;;;7.03;3.85;;;-3.00;99.90;;;;;;5149894;27;20074;-70
2024/01/09 04:42:07;;;;;;;6.82;3.60;;;-3.10;99.90;;;;;;5149781;27;20074;-70
2024/01/09 04:44:33;;;;;;;4.18;3.28;;;-3.10;99.90;;;;;;5131047;27;20164;-70
2024/01/09 04:46:59;;;;;;;6.25;3.53;;;-3.10;99.90;;;;;;5130358;27;20038;-70
2024/01/09 04:49:25;;;;;;;6.93;3.53;;;-3.00;99.90;;;;;;5149537;27;20039;-70
2024/01/09 04:51:51;;;;;;;5.50;4.15;;;-3.10;99.90;;;;;;5132216;27;20058;-70
2024/01/09 04:54:16;;;;;;;4.32;3.33;;;-3.00;99.90;;;;;;5130933;27;20496;-70
2024/01/09 04:56:43;;;;;;;4.45;3.38;;;-3.10;99.90;;;;;;5131065;27;20150;-69
2024/01/09 04:59:09;;;;;;;3.78;3.25;;;-3.20;99.90;;;;;;5130669;27;20054;-70
2024/01/09 05:01:35;;;;;;;5.60;3.50;;;-3.10;99.90;;;;;;5129976;27;20142;-69
2024/01/09 05:04:01;;;;;;;4.13;3.38;;;-3.10;99.90;;;;;;5148981;27;20167;-70
2024/01/09 05:06:27;;;;;;;4.03;3.30;;;-3.10;99.90;;;;;;5149253;27;20371;-70
2024/01/09 05:08:53;;;;;;;7.95;3.90;;;-3.20;99.90;;;;;;5149912;27;20046;-70
2024/01/09 05:11:18;;;;;;;5.85;3.55;;;-3.10;99.90;;;;;;5153359;27;20050;-70
2024/01/09 05:13:44;;;;;;;6.30;3.53;;;-3.10;99.90;;;;;;5134168;27;20058;-68
2024/01/09 05:16:10;;;;;;;4.47;3.30;;;-3.10;99.90;;;;;;5152769;27;20067;-69
2024/01/09 05:18:36;;;;;;;6.30;4.25;;;-3.20;99.90;;;;;;5153239;27;20042;-69
2024/01/09 05:21:02;;;;;;;6.15;3.00;;;-3.20;99.90;;;;;;5133953;27;20078;-69
2024/01/09 05:23:28;;;;;;;4.72;3.15;;;-3.20;99.90;;;;;;5134304;27;20502;-69
2024/01/09 05:25:53;;;;;;;4.22;3.65;;;-3.30;99.90;;;;;;5134582;27;20038;-68
2024/01/09 05:28:19;;;;;;;5.22;3.80;;;-3.30;99.90;;;;;;5133869;27;20467;-69
2024/01/09 05:30:45;;;;;;;5.45;3.70;;;-3.30;99.90;;;;;;5133593;27;20046;-69
2024/01/09 05:33:11;;;;;;;10.10;3.63;;;-3.40;99.90;;;;;;5152707;27;20162;-69
2024/01/09 05:35:36;;;;;;;5.60;3.80;;;-3.40;99.90;;;;;;5134122;27;20114;-69
2024/01/09 05:38:02;;;;;;;4.35;3.70;;;-3.40;99.90;;;;;;5134129;27;20042;-69
2024/01/09 05:40:28;;;;;;;7.43;3.97;;;-3.40;99.90;;;;;;5133840;27;20082;-70
2024/01/09 05:42:53;;;;;;;4.18;3.42;;;-3.40;99.90;;;;;;5134242;27;20043;-69
2024/01/09 05:45:19;;;;;;;6.53;3.60;;;-3.40;99.90;;;;;;5133902;27;20066;-69
2024/01/09 05:47:45;;;;;;;4.57;3.38;;;-3.40;99.90;;;;;;5133623;27;20069;-69
2024/01/09 05:50:11;;;;;;;5.82;4.15;;;-3.40;99.90;;;;;;5133570;27;20061;-69
2024/01/09 05:52:38;;;;;;;4.38;3.13;;;-3.40;99.90;;;;;;5133610;27;20043;-69
2024/01/09 05:55:07;;;;;;;6.68;4.15;;;-3.50;99.90;;;;;;5152204;27;20042;-70
2024/01/09 05:57:32;;;;;;;5.25;3.80;;;-3.50;99.90;;;;;;5133517;27;20103;-70
2024/01/09 05:59:59;;;;;;;5.97;3.88;;;-3.50;99.90;;;;;;5133447;27;20046;-70
2024/01/09 06:02:25;;;;;;;7.50;3.72;;;-3.50;99.90;;;;;;5152241;27;20034;-70
2024/01/09 06:04:51;;;;;;;7.13;3.42;;;-3.50;99.90;;;;;;5133518;27;20050;-70
2024/01/09 06:07:17;;;;;;;5.70;3.67;;;-3.60;99.90;;;;;;5133085;27;20047;-70
2024/01/09 06:09:43;;;;;;;5.03;3.55;;;-3.50;99.90;;;;;;5133634;27;20133;-68
2024/01/09 06:12:09;;;;;;;4.95;4.05;;;-3.50;99.90;;;;;;5152131;27;20117;-69
2024/01/09 06:14:35;;;;;;;4.43;3.38;;;-3.50;99.90;;;;;;5151926;27;20050;-69
2024/01/09 06:17:01;;;;;;;6.47;3.88;;;-3.50;99.90;;;;;;5133634;27;20072;-69
2024/01/09 06:19:26;;;;;;;5.22;3.95;;;-3.50;99.90;;;;;;5152140;27;20110;-69
2024/01/09 06:21:52;;;;;;;6.50;3.28;;;-3.50;99.90;;;;;;5133398;27;20035;-69
2024/01/09 06:24:18;;;;;;;5.88;3.70;;;-3.50;99.90;;;;;;5133707;27;20420;-69
2024/01/09 06:26:43;;;;;;;4.68;3.53;;;-3.50;99.90;;;;;;5152438;27;20114;-69
2024/01/09 06:29:09;;;;;;;6.55;3.53;;;-3.50;99.90;;;;;;5133275;27;20428;-69
2024/01/09 06:31:35;;;;;;;4.85;3.45;;;-3.50;99.90;;;;;;5133606;27;20630;-69
2024/01/09 06:34:01;;;;;;;6.03;3.58;;;-3.70;99.90;;;;;;5152165;27;20121;-70
2024/01/09 06:36:27;;;;;;;5.07;3.47;;;-3.50;99.90;;;;;;5152296;27;20034;-69
2024/01/09 06:38:52;;;;;;;3.58;3.17;;;-3.50;99.90;;;;;;5143582;27;20043;-70
2024/01/09 06:41:18;;;;;;;4.28;3.30;;;-3.50;99.90;;;;;;5140079;27;20041;-69
2024/01/09 06:43:44;;;;;;;6.20;4.00;;;-3.50;99.90;;;;;;5141016;27;20046;-69
2024/01/09 06:46:09;;;;;;;3.58;3.05;;;-3.50;99.90;;;;;;5148282;27;20038;-69
2024/01/09 06:48:35;;;;;;;5.32;3.67;;;-3.50;99.90;;;;;;5135468;27;20039;-70
2024/01/09 06:51:01;;;;;;;4.68;3.35;;;-3.50;99.90;;;;;;5144777;27;20517;-69
2024/01/09 06:53:27;;;;;;;3.80;3.10;;;-3.60;99.90;;;;;;5172871;27;20105;-69
2024/01/09 06:55:52;;;;;;;5.10;3.88;;;-3.60;99.90;;;;;;5172557;27;20042;-68
2024/01/09 06:58:18;;;;;;;5.47;3.17;;;-3.60;99.90;;;;;;5153932;27;20471;-70
2024/01/09 07:00:44;;;;;;;3.88;3.53;;;-3.40;99.90;;;;;;5172658;27;20595;-70
2024/01/09 07:03:10;;;;;;;5.03;3.22;;;-3.50;99.90;;;;;;5136167;27;20038;-69
2024/01/09 07:05:36;;;;;;;4.95;3.72;;;-3.50;99.90;;;;;;5153758;27;20046;-68
2024/01/09 07:08:03;;;;;;;4.57;3.67;;;-3.60;99.90;;;;;;5172185;27;20485;-69
2024/01/09 07:10:29;;;;;;;5.15;4.20;;;-3.60;99.90;;;;;;5153227;27;20054;-68
2024/01/09 07:12:55;;;;;;;5.88;3.88;;;-3.60;99.90;;;;;;5153535;27;20068;-69
2024/01/09 07:15:21;;;;;;;4.68;3.40;;;-3.70;99.90;;;;;;5153357;27;20046;-69
2024/01/09 07:17:47;;;;;;;5.70;3.78;;;-3.60;99.90;;;;;;5153338;27;20417;-69
2024/01/09 07:20:12;;;;;;;4.43;3.42;;;-3.60;99.90;;;;;;5172021;27;20056;-69
2024/01/09 07:22:38;;;;;;;4.57;3.25;;;-3.70;99.90;;;;;;5140955;27;20095;-69
2024/01/09 07:25:04;;;;;;;6.70;3.33;;;-3.70;99.90;;;;;;5131995;27;20070;-69
2024/01/09 07:27:30;;;;;;;4.10;3.70;;;-3.70;99.90;;;;;;5117060;27;20066;-69
2024/01/09 07:29:56;;;;;;;5.60;2.83;;;-3.80;99.90;;;;;;5150971;27;20046;-69
2024/01/09 07:32:21;;;;;;;5.82;4.05;;;-3.80;99.90;;;;;;5099561;27;20041;-70
2024/01/09 07:34:48;;;;;;;3.55;3.10;;;-3.70;99.90;;;;;;5150928;27;20197;-70
2024/01/09 07:37:14;;;;;;;4.95;3.40;;;-3.70;99.90;;;;;;5151002;27;20802;-69
2024/01/09 07:39:40;;;;;;;3.78;3.38;;;-3.80;99.90;;;;;;5150807;27;20188;-69
2024/01/09 07:42:06;;;;;;;6.30;3.53;;;-3.80;99.90;;;;;;5132053;27;20050;-69
2024/01/09 07:44:32;;;;;;;12.00;3.95;;;-3.80;99.90;;;;;;5132047;27;20454;-69
2024/01/09 07:46:58;;;;;;;6.03;3.75;;;-3.80;99.90;;;;;;5132068;27;20051;-70
2024/01/09 07:49:23;;;;;;;5.15;3.65;;;-3.90;99.90;;;;;;5132063;27;20054;-69
2024/01/09 07:51:49;;;;;;;6.32;3.45;;;-3.80;99.90;;;;;;5132303;27;20043;-69
2024/01/09 07:54:15;;;;;;;4.18;3.40;;;-3.70;99.90;;;;;;5131920;27;20057;-69
2024/01/09 07:56:42;;;;;;;5.70;3.63;;;-3.80;99.90;;;;;;5132490;27;20057;-69
2024/01/09 07:59:07;;;;;;;4.72;3.70;;;-3.70;99.90;;;;;;5132152;27;20050;-70
2024/01/09 08:01:34;;;;;;;5.30;3.30;;;-3.80;99.90;;;;;;5132188;27;20413;-69
2024/01/09 08:04:01;;;;;;;6.80;4.10;;;-3.80;99.90;;;;;;5150210;27;20538;-69
2024/01/09 08:06:26;;;;;;;8.23;5.55;;;-3.80;99.90;;;;;;5130972;27;20053;-69
2024/01/09 08:08:52;;;;;;;6.00;3.25;;;-3.90;99.90;;;;;;5131477;27;20043;-69
2024/01/09 08:11:18;;;;;;;4.35;3.40;;;-3.90;99.90;;;;;;5150518;27;20417;-69
2024/01/09 08:13:43;;;;;;;5.30;3.53;;;-3.80;99.90;;;;;;5131943;27;20042;-69
2024/01/09 08:16:09;;;;;;;4.30;3.83;;;-3.80;99.90;;;;;;5132126;27;20393;-69
2024/01/09 08:18:37;;;;;;;6.82;4.38;;;-3.80;99.90;;;;;;5132276;27;20100;-69
2024/01/09 08:21:02;;;;;;;5.07;3.63;;;-3.80;99.90;;;;;;5150972;27;20038;-69
2024/01/09 08:23:28;;;;;;;4.85;3.70;;;-3.80;99.90;;;;;;5150383;27;20042;-69
2024/01/09 08:25:54;;;;;;;6.25;3.97;;;-3.80;99.90;;;;;;5131971;27;20398;-69
2024/01/09 08:28:20;;;;;;;6.20;4.00;;;-3.90;99.90;;;;;;5131729;27;20086;-69
2024/01/09 08:30:45;;;;;;;8.43;3.97;;;-3.90;99.90;;;;;;5150169;27;20459;-69
2024/01/09 08:33:11;;;;;;;9.07;4.47;;;-3.90;99.90;;;;;;5132010;27;20110;-68
2024/01/09 08:35:39;;;;;;;7.43;3.28;;;-3.60;99.90;;;;;;5131751;27;20043;-72
2024/01/09 08:38:04;;;;;;;4.05;3.25;;;-3.70;99.90;;;;;;5131547;27;20086;-70
2024/01/09 08:40:30;;;;;;;5.60;3.85;;;-3.70;99.90;;;;;;5131697;27;20054;-71
2024/01/09 08:42:56;;;;;;;4.43;3.75;;;-3.60;99.90;;;;;;5133250;27;20398;-70
2024/01/09 08:45:21;;;;;;;6.55;4.10;;;-3.60;99.90;;;;;;5154997;27;20500;-70
2024/01/09 08:47:47;;;;;;;5.45;4.05;;;-3.60;99.90;;;;;;5154524;27;20050;-71
2024/01/09 08:50:13;;;;;;;6.03;3.50;;;-3.60;99.90;;;;;;5135717;27;20058;-70
2024/01/09 08:52:39;;;;;;;8.27;3.65;;;-3.60;99.90;;;;;;5154467;27;20027;-71
2024/01/09 08:55:05;;;;;;;5.72;3.65;;;-3.60;99.90;;;;;;5154204;27;20038;-71
2024/01/09 08:57:30;;;;;;;4.10;3.50;;;-3.60;99.90;;;;;;5137631;27;20055;-71
2024/01/09 08:59:57;;;;;;;4.05;3.05;;;-3.50;99.90;;;;;;5145067;27;20304;-71
2024/01/09 09:02:24;;;;;;;4.10;2.95;;;-3.50;99.90;;;;;;5125706;27;20078;-70
2024/01/09 09:04:52;;;;;;;5.05;3.53;;;-3.50;99.90;;;;;;5143221;27;20401;-70
2024/01/09 09:07:18;;;;;;;5.50;3.50;;;-3.50;99.90;;;;;;5141925;27;20444;-70
2024/01/09 09:09:44;;;;;;;4.85;3.60;;;-3.40;99.90;;;;;;5125121;27;20039;-70
2024/01/09 09:12:11;;;;;;;5.32;3.30;;;-3.40;99.90;;;;;;5124759;27;20476;-70
2024/01/09 09:14:37;;;;;;;5.88;3.92;;;-3.30;99.90;;;;;;5142133;27;20043;-70
2024/01/09 09:17:03;;;;;;;6.47;3.75;;;-3.30;99.90;;;;;;5142217;27;20041;-71
2024/01/09 09:19:31;;;;;;;7.70;4.25;;;-3.30;99.90;;;;;;5142918;27;20043;-71
2024/01/09 09:21:57;;;;;;;5.35;3.92;;;-3.30;99.90;;;;;;5149770;27;20090;-71
2024/01/09 09:24:23;;;;;;;6.13;3.58;;;-3.20;99.90;;;;;;5134902;27;20050;-71
2024/01/09 09:26:49;;;;;;;6.70;4.28;;;-3.20;99.90;;;;;;5134762;27;20125;-71
2024/01/09 09:29:14;;;;;;;6.60;4.25;;;-3.20;99.90;;;;;;5134512;27;20185;-71
2024/01/09 09:31:40;;;;;;;6.97;3.90;;;-3.20;99.90;;;;;;5153604;27;20377;-71
2024/01/09 09:34:06;;;;;;;6.88;4.00;;;-3.20;99.90;;;;;;5127726;27;20067;-71
2024/01/09 09:36:32;;;;;;;5.63;3.90;;;-3.10;99.90;;;;;;5132619;27;20079;-72
2024/01/09 09:38:58;;;;;;;3.90;3.20;;;-3.10;99.90;;;;;;5132822;27;20517;-71
2024/01/09 09:41:24;;;;;;;5.53;3.53;;;-3.10;99.90;;;;;;5153393;27;20076;-70
2024/01/09 09:43:57;;;;;;;5.05;3.47;;;-3.10;99.90;;;;;;5153249;27;20039;-71
2024/01/09 09:46:28;;;;;;;5.35;3.67;;;-3.10;99.90;;;;;;5134828;27;20357;-70
2024/01/09 09:48:56;;;;;;;6.00;3.72;;;-3.00;99.90;;;;;;5140156;27;20133;-71
2024/01/09 09:51:23;;;;;;;4.82;3.00;;;-2.90;99.90;;;;;;5143711;27;20442;-71
2024/01/09 09:53:50;;;;;;;5.00;3.67;;;-2.90;99.90;;;;;;5168427;27;20086;-72
2024/01/09 09:56:16;;;;;;;5.97;3.58;;;-2.90;99.90;;;;;;5173530;27;20030;-67
2024/01/09 09:58:42;;;;;;;4.20;3.42;;;-2.80;99.90;;;;;;5162169;27;20560;-69
2024/01/09 10:01:12;;;;;;;3.17;2.85;;;-2.80;99.90;;;;;;5153274;27;20078;-68
2024/01/09 10:03:44;;;;;;;4.40;3.08;;;-2.80;99.90;;;;;;5134397;27;20410;-69
2024/01/09 10:06:11;;;;;;;5.68;3.22;;;-2.60;99.90;;;;;;5133970;27;20459;-67
2024/01/09 10:08:38;;;;;;;4.28;3.00;;;-2.70;99.90;;;;;;5153011;27;20047;-69
2024/01/09 10:11:04;;;;;;;4.32;2.90;;;-2.70;99.90;;;;;;5152673;27;20101;-68
2024/01/09 10:13:30;;;;;;;4.90;3.45;;;-2.60;99.90;;;;;;5134272;27;20127;-68
2024/01/09 10:15:59;;;;;;;3.30;2.97;;;-2.70;99.90;;;;;;5152495;27;20555;-69
2024/01/09 10:18:32;;;;;;;5.97;3.40;;;-2.60;99.90;;;;;;5153068;27;20610;-69
2024/01/09 10:21:01;;;;;;;3.65;3.35;;;-2.60;99.90;;;;;;5133582;27;20126;-68
2024/01/09 10:23:27;;;;;;;6.18;4.28;;;-2.50;99.90;;;;;;5134077;27;20568;-70
2024/01/09 10:25:56;;;;;;;5.15;3.20;;;-2.50;99.90;;;;;;5116822;27;20095;-69
2024/01/09 10:28:22;;;;;;;4.13;2.88;;;-2.50;99.90;;;;;;5133503;27;20054;-69
2024/01/09 10:30:53;;;;;;;3.72;3.05;;;-2.40;99.90;;;;;;5153038;27;20054;-69
2024/01/09 10:33:19;;;;;;;4.53;3.30;;;-2.40;99.90;;;;;;5134044;27;20397;-69
2024/01/09 10:35:45;;;;;;;4.82;3.42;;;-2.40;99.90;;;;;;5152759;27;20727;-69
2024/01/09 10:38:11;;;;;;;5.60;3.17;;;-2.30;99.90;;;;;;5152857;27;20113;-69
2024/01/09 10:40:37;;;;;;;3.67;2.97;;;-2.40;99.90;;;;;;5134525;27;20057;-69
2024/01/09 10:43:03;;;;;;;4.38;3.28;;;-2.30;99.90;;;;;;5133994;27;20137;-69
2024/01/09 10:45:30;;;;;;;8.63;3.75;;;-2.30;99.90;;;;;;5133911;27;20110;-69
2024/01/09 10:47:58;;;;;;;3.78;3.15;;;-2.20;99.90;;;;;;5152273;27;20370;-69
2024/01/09 10:50:24;;;;;;;4.53;3.38;;;-2.20;99.90;;;;;;5133672;27;20035;-69
2024/01/09 10:52:51;;;;;;;6.25;3.35;;;-2.10;99.90;;;;;;5133892;27;20077;-69
2024/01/09 10:55:18;;;;;;;5.13;3.42;;;-2.10;99.90;;;;;;5122482;22;20449;-69
2024/01/09 10:57:46;;;;;;;4.30;3.03;;;-2.10;99.90;;;;;;5090748;28;20040;-69
2024/01/09 11:00:12;;;;;;;4.95;2.92;;;-2.10;99.90;;;;;;5072409;28;20047;-69
2024/01/09 11:02:39;;;;;;;5.00;3.38;;;-2.00;99.90;;;;;;5090220;28;20052;-69
2024/01/09 11:05:10;;;;;;;5.70;3.17;;;-1.90;99.90;;;;;;5072180;28;20075;-69
2024/01/09 11:07:37;;;;;;;4.25;2.90;;;-1.90;99.90;;;;;;5089469;28;20052;-69
2024/01/09 11:10:04;;;;;;;5.03;3.28;;;-1.80;99.90;;;;;;5090775;28;20052;-70
2024/01/09 11:12:39;;;;;;;3.15;2.58;;;-1.80;99.90;;;;;;5072325;28;20051;-70
2024/01/09 11:15:15;;;;;;;5.07;2.90;;;-1.80;99.90;;;;;;5090518;28;20420;-70
2024/01/09 11:17:44;;;;;;;5.00;3.15;;;-1.80;99.90;;;;;;5072217;28;20152;-69
2024/01/09 11:20:11;;;;;;;3.97;3.10;;;-1.80;99.90;;;;;;5090294;28;20040;-69
2024/01/09 11:22:37;;;;;;;5.93;2.92;;;-1.70;99.90;;;;;;5071464;28;20123;-70
2024/01/09 11:25:05;;;;;;;5.40;3.63;;;-1.80;99.90;;;;;;5090569;28;20514;-70
2024/01/09 11:27:41;;;;;;;3.83;3.20;;;-1.70;99.90;;;;;;5090418;28;20161;-70
2024/01/09 11:30:14;;;;;;;5.05;3.78;;;-1.60;99.90;;;;;;5090374;28;20040;-70
2024/01/09 11:32:39;;;;;;;4.63;2.85;;;-1.60;99.90;;;;;;5072233;28;20098;-70
2024/01/09 11:35:16;;;;;;;3.17;2.88;;;-1.40;99.90;;;;;;5072259;28;20432;-70
2024/01/09 11:37:44;;;;;;;4.00;3.50;;;-1.50;99.90;;;;;;5090418;28;20398;-70
2024/01/09 11:40:11;;;;;;;10.95;4.05;;;-1.50;99.90;;;;;;5071704;28;20070;-72
2024/01/09 11:42:38;;;;;;;5.53;2.60;;;-1.40;99.90;;;;;;5071295;28;20048;-73
2024/01/09 11:45:07;;;;;;;5.78;2.90;;;-1.50;99.90;;;;;;5070328;28;20124;-72
2024/01/09 11:47:36;;;;;;;4.82;3.55;;;-1.40;99.90;;;;;;5068231;28;20381;-72
2024/01/09 11:50:05;;;;;;;4.05;2.95;;;-1.40;99.90;;;;;;5071203;28;20072;-72
2024/01/09 11:52:31;;;;;;;5.63;3.13;;;-1.30;99.90;;;;;;5071218;28;20052;-73
2024/01/09 11:54:57;;;;;;;6.00;3.58;;;-1.30;99.90;;;;;;5071106;28;20417;-73
2024/01/09 11:57:23;;;;;;;4.57;2.60;;;-1.30;99.90;;;;;;5089172;28;20116;-73
2024/01/09 11:59:49;;;;;;;6.50;3.08;;;-1.30;99.90;;;;;;5088729;28;20055;-73
2024/01/09 12:02:18;;;;;;;5.72;3.50;;;-1.20;99.90;;;;;;5090593;28;20197;-73
2024/01/09 12:04:45;;;;;;;4.57;3.33;;;-1.20;99.90;;;;;;5073027;28;20112;-73
2024/01/09 12:07:12;;;;;;;4.95;3.33;;;-1.20;99.90;;;;;;5072885;28;20127;-76
2024/01/09 12:09:38;;;;;;;5.05;3.15;;;-1.10;99.90;;;;;;5073601;28;20052;-72
2024/01/09 12:12:08;;;;;;;5.70;3.20;;;-1.10;99.90;;;;;;5073179;28;20139;-72
2024/01/09 12:14:34;;;;;;;6.13;3.05;;;-1.10;99.90;;;;;;5072133;28;20058;-72
2024/01/09 12:17:00;;;;;;;4.38;2.70;;;-1.10;99.90;;;;;;5070628;28;20793;-72
2024/01/09 12:19:26;;;;;;;3.08;2.55;;;-1.10;99.90;;;;;;5070700;28;20059;-73
2024/01/09 12:21:51;;;;;;;4.78;3.38;;;-1.00;99.90;;;;;;5070776;28;20456;-71
2024/01/09 12:24:18;;;;;;;3.60;2.75;;;-1.00;99.90;;;;;;5071403;28;20119;-73
2024/01/09 12:26:44;;;;;;;3.55;2.88;;;-1.00;99.90;;;;;;5070861;28;20058;-73
2024/01/09 12:29:12;;;;;;;4.15;2.60;;;-0.90;99.90;;;;;;5071415;28;20044;-73
2024/01/09 12:31:38;;;;;;;3.75;3.00;;;-0.90;99.90;;;;;;5053895;28;20098;-72
2024/01/09 12:34:04;;;;;;;5.15;3.42;;;-0.90;99.90;;;;;;5070512;28;20052;-72
2024/01/09 12:36:31;;;;;;;3.03;2.83;;;-0.80;99.90;;;;;;5071128;28;20052;-73
2024/01/09 12:38:57;;;;;;;3.90;2.97;;;-0.80;99.90;;;;;;5071354;28;20047;-73
2024/01/09 12:41:23;;;;;;;3.47;3.10;;;-0.80;99.90;;;;;;5071133;28;20055;-73
2024/01/09 12:43:51;;;;;;;5.53;2.92;;;-0.80;99.90;;;;;;5070702;28;20553;-73